sensor_id;sensor_type;location;lat;lon;timestamp;temperature;humidity
19728;DHT22;10015;52.530;13.390;2023-08-07T00:00:28;19.10;99.90
19728;DHT22;10015;52.530;13.390;2023-08-07T00:02:54;19.10;99.90
19728;DHT22;10015;52.530;13.390;2023-08-07T00:05:20;19.00;99.90
19728;DHT22;10015;52.530;13.390;2023-08-07T00:07:45;19.00;99.90
19728;DHT22;10015;52.530;13.390;2023-08-07T00:10:11;19.00;99.90
19728;DHT22;10015;52.530;13.390;2023-08-07T00:12:37;19.00;99.90
19728;DHT22;10015;52.530;13.390;2023-08-07T00:15:03;19.00;99.90
19728;DHT22;10015;52.530;13.390;2023-08-07T00:17:30;19.00;99.90
19728;DHT22;10015;52.530;13.390;2023-08-07T00:19:56;19.00;99.90
19728;DHT22;10015;52.530;13.390;2023-08-07T00:22:22;19.00;99.90
19728;DHT22;10015;52.530;13.390;2023-08-07T00:24:48;19.00;99.90
19728;DHT22;10015;52.530;13.390;2023-08-07T00:27:14;19.00;99.90
19728;DHT22;10015;52.530;13.390;2023-08-07T00:29:40;19.00;99.90
19728;DHT22;10015;52.530;13.390;2023-08-07T00:32:06;19.00;99.90
19728;DHT22;10015;52.530;13.390;2023-08-07T00:34:32;19.00;99.90
19728;DHT22;10015;52.530;13.390;2023-08-07T00:36:58;19.10;99.90
19728;DHT22;10015;52.530;13.390;2023-08-07T00:39:24;19.00;99.90
19728;DHT22;10015;52.530;13.390;2023-08-07T00:41:50;19.00;99.90
19728;DHT22;10015;52.530;13.390;2023-08-07T00:44:16;19.00;99.90
19728;DHT22;10015;52.530;13.390;2023-08-07T00:46:43;19.00;99.90
19728;DHT22;10015;52.530;13.390;2023-08-07T00:49:11;19.00;99.90
19728;DHT22;10015;52.530;13.390;2023-08-07T00:51:38;19.00;99.90
19728;DHT22;10015;52.530;13.390;2023-08-07T00:54:05;18.90;99.90
19728;DHT22;10015;52.530;13.390;2023-08-07T00:56:31;18.90;99.90
19728;DHT22;10015;52.530;13.390;2023-08-07T00:59:00;18.90;99.90
19728;DHT22;10015;52.530;13.390;2023-08-07T01:01:27;19.00;99.90
19728;DHT22;10015;52.530;13.390;2023-08-07T01:03:53;19.00;99.90
19728;DHT22;10015;52.530;13.390;2023-08-07T01:06:19;19.00;99.90
19728;DHT22;10015;52.530;13.390;2023-08-07T01:08:46;18.90;99.90
19728;DHT22;10015;52.530;13.390;2023-08-07T01:11:36;18.90;99.90
19728;DHT22;10015;52.530;13.390;2023-08-07T01:14:18;18.90;99.90
19728;DHT22;10015;52.530;13.390;2023-08-07T01:19:27;18.90;99.90
19728;DHT22;10015;52.530;13.390;2023-08-07T01:22:13;18.90;99.90
19728;DHT22;10015;52.530;13.390;2023-08-07T01:24:41;19.00;99.90
19728;DHT22;10015;52.530;13.390;2023-08-07T01:32:19;18.90;99.90
19728;DHT22;10015;52.530;13.390;2023-08-07T01:34:48;18.80;99.90
19728;DHT22;10015;52.530;13.390;2023-08-07T01:37:14;18.70;99.90
19728;DHT22;10015;52.530;13.390;2023-08-07T01:39:41;18.80;99.90
19728;DHT22;10015;52.530;13.390;2023-08-07T01:42:08;18.80;99.90
19728;DHT22;10015;52.530;13.390;2023-08-07T01:44:36;18.80;99.90
19728;DHT22;10015;52.530;13.390;2023-08-07T01:47:02;18.80;99.90
19728;DHT22;10015;52.530;13.390;2023-08-07T01:49:28;18.80;99.90
19728;DHT22;10015;52.530;13.390;2023-08-07T01:51:54;18.80;99.90
19728;DHT22;10015;52.530;13.390;2023-08-07T01:54:19;18.80;99.90
19728;DHT22;10015;52.530;13.390;2023-08-07T01:56:45;18.80;99.90
19728;DHT22;10015;52.530;13.390;2023-08-07T01:59:11;18.80;99.90
19728;DHT22;10015;52.530;13.390;2023-08-07T02:01:37;18.80;99.90
19728;DHT22;10015;52.530;13.390;2023-08-07T02:04:03;18.80;99.90
19728;DHT22;10015;52.530;13.390;2023-08-07T02:06:29;18.80;99.90
19728;DHT22;10015;52.530;13.390;2023-08-07T02:08:55;18.80;99.90
19728;DHT22;10015;52.530;13.390;2023-08-07T02:11:21;18.80;99.90
19728;DHT22;10015;52.530;13.390;2023-08-07T02:13:47;18.80;99.90
19728;DHT22;10015;52.530;13.390;2023-08-07T02:16:13;18.80;99.90
19728;DHT22;10015;52.530;13.390;2023-08-07T02:18:39;18.80;99.90
19728;DHT22;10015;52.530;13.390;2023-08-07T02:21:05;18.80;99.90
19728;DHT22;10015;52.530;13.390;2023-08-07T02:23:31;18.70;99.90
19728;DHT22;10015;52.530;13.390;2023-08-07T02:25:57;18.70;99.90
19728;DHT22;10015;52.530;13.390;2023-08-07T02:28:23;18.60;99.90
19728;DHT22;10015;52.530;13.390;2023-08-07T02:30:48;18.60;99.90
19728;DHT22;10015;52.530;13.390;2023-08-07T02:33:16;18.60;99.90
19728;DHT22;10015;52.530;13.390;2023-08-07T02:35:43;18.50;99.90
19728;DHT22;10015;52.530;13.390;2023-08-07T02:38:10;18.50;99.90
19728;DHT22;10015;52.530;13.390;2023-08-07T02:40:36;18.50;99.90
19728;DHT22;10015;52.530;13.390;2023-08-07T02:43:03;18.50;99.90
19728;DHT22;10015;52.530;13.390;2023-08-07T02:45:29;18.60;99.90
19728;DHT22;10015;52.530;13.390;2023-08-07T02:47:54;18.50;99.90
19728;DHT22;10015;52.530;13.390;2023-08-07T02:50:20;18.50;99.90
19728;DHT22;10015;52.530;13.390;2023-08-07T02:52:46;18.50;99.90
19728;DHT22;10015;52.530;13.390;2023-08-07T02:55:12;18.50;99.90
19728;DHT22;10015;52.530;13.390;2023-08-07T02:57:38;18.50;99.90
19728;DHT22;10015;52.530;13.390;2023-08-07T03:00:04;18.60;99.90
19728;DHT22;10015;52.530;13.390;2023-08-07T03:02:30;18.60;99.90
19728;DHT22;10015;52.530;13.390;2023-08-07T03:04:56;18.60;99.90
19728;DHT22;10015;52.530;13.390;2023-08-07T03:07:22;18.60;99.90
19728;DHT22;10015;52.530;13.390;2023-08-07T03:09:48;18.60;99.90
19728;DHT22;10015;52.530;13.390;2023-08-07T03:12:14;18.60;99.90
19728;DHT22;10015;52.530;13.390;2023-08-07T03:14:40;18.60;99.90
19728;DHT22;10015;52.530;13.390;2023-08-07T03:17:06;18.70;99.90
19728;DHT22;10015;52.530;13.390;2023-08-07T03:19:31;18.70;99.90
19728;DHT22;10015;52.530;13.390;2023-08-07T03:21:57;18.70;99.90
19728;DHT22;10015;52.530;13.390;2023-08-07T03:24:23;18.70;99.90
19728;DHT22;10015;52.530;13.390;2023-08-07T03:26:49;18.70;99.90
19728;DHT22;10015;52.530;13.390;2023-08-07T03:29:16;18.70;99.90
19728;DHT22;10015;52.530;13.390;2023-08-07T03:31:42;18.70;99.90
19728;DHT22;10015;52.530;13.390;2023-08-07T03:34:09;18.70;99.90
19728;DHT22;10015;52.530;13.390;2023-08-07T03:36:35;18.70;99.90
19728;DHT22;10015;52.530;13.390;2023-08-07T03:39:01;18.70;99.90
19728;DHT22;10015;52.530;13.390;2023-08-07T03:41:27;18.70;99.90
19728;DHT22;10015;52.530;13.390;2023-08-07T03:43:54;18.70;99.90
19728;DHT22;10015;52.530;13.390;2023-08-07T03:46:20;18.70;99.90
19728;DHT22;10015;52.530;13.390;2023-08-07T03:48:45;18.60;99.90
19728;DHT22;10015;52.530;13.390;2023-08-07T03:51:11;18.60;99.90
19728;DHT22;10015;52.530;13.390;2023-08-07T03:53:42;18.50;99.90
19728;DHT22;10015;52.530;13.390;2023-08-07T03:56:08;18.40;99.90
19728;DHT22;10015;52.530;13.390;2023-08-07T03:58:35;18.40;99.90
19728;DHT22;10015;52.530;13.390;2023-08-07T04:01:01;18.30;99.90
19728;DHT22;10015;52.530;13.390;2023-08-07T04:03:27;18.40;99.90
19728;DHT22;10015;52.530;13.390;2023-08-07T04:05:54;18.40;99.90
19728;DHT22;10015;52.530;13.390;2023-08-07T04:08:22;18.50;99.90
19728;DHT22;10015;52.530;13.390;2023-08-07T04:11:04;18.50;99.90
19728;DHT22;10015;52.530;13.390;2023-08-07T04:13:32;18.50;99.90
19728;DHT22;10015;52.530;13.390;2023-08-07T04:15:59;18.50;99.90
19728;DHT22;10015;52.530;13.390;2023-08-07T04:18:26;18.50;99.90
19728;DHT22;10015;52.530;13.390;2023-08-07T04:20:53;18.50;99.90
19728;DHT22;10015;52.530;13.390;2023-08-07T04:23:20;18.50;99.90
19728;DHT22;10015;52.530;13.390;2023-08-07T04:25:49;18.60;99.90
19728;DHT22;10015;52.530;13.390;2023-08-07T04:28:16;18.60;99.90
19728;DHT22;10015;52.530;13.390;2023-08-07T04:30:43;18.70;99.90
19728;DHT22;10015;52.530;13.390;2023-08-07T04:33:09;18.70;99.90
19728;DHT22;10015;52.530;13.390;2023-08-07T04:35:35;18.70;99.90
19728;DHT22;10015;52.530;13.390;2023-08-07T04:38:02;18.70;99.90
19728;DHT22;10015;52.530;13.390;2023-08-07T04:40:28;18.80;99.90
19728;DHT22;10015;52.530;13.390;2023-08-07T04:42:55;18.80;99.90
19728;DHT22;10015;52.530;13.390;2023-08-07T04:45:21;18.80;99.90
19728;DHT22;10015;52.530;13.390;2023-08-07T04:47:47;18.80;99.90
19728;DHT22;10015;52.530;13.390;2023-08-07T04:50:13;18.90;99.90
19728;DHT22;10015;52.530;13.390;2023-08-07T04:52:39;18.90;99.90
19728;DHT22;10015;52.530;13.390;2023-08-07T04:55:05;18.90;99.90
19728;DHT22;10015;52.530;13.390;2023-08-07T04:57:31;18.90;99.90
19728;DHT22;10015;52.530;13.390;2023-08-07T04:59:57;19.00;99.90
19728;DHT22;10015;52.530;13.390;2023-08-07T05:02:23;18.80;99.90
19728;DHT22;10015;52.530;13.390;2023-08-07T05:04:49;18.80;99.90
19728;DHT22;10015;52.530;13.390;2023-08-07T05:07:15;18.90;99.90
19728;DHT22;10015;52.530;13.390;2023-08-07T05:09:40;19.00;99.90
19728;DHT22;10015;52.530;13.390;2023-08-07T05:12:07;19.10;99.90
19728;DHT22;10015;52.530;13.390;2023-08-07T05:14:33;19.10;99.90
19728;DHT22;10015;52.530;13.390;2023-08-07T05:16:59;19.10;99.90
19728;DHT22;10015;52.530;13.390;2023-08-07T05:19:27;19.20;99.90
19728;DHT22;10015;52.530;13.390;2023-08-07T05:21:53;19.10;99.90
19728;DHT22;10015;52.530;13.390;2023-08-07T05:24:19;19.20;99.90
19728;DHT22;10015;52.530;13.390;2023-08-07T05:26:45;19.10;99.90
19728;DHT22;10015;52.530;13.390;2023-08-07T05:29:11;19.10;99.90
19728;DHT22;10015;52.530;13.390;2023-08-07T05:31:37;19.10;99.90
19728;DHT22;10015;52.530;13.390;2023-08-07T05:34:03;19.00;99.90
19728;DHT22;10015;52.530;13.390;2023-08-07T05:36:29;19.00;99.90
19728;DHT22;10015;52.530;13.390;2023-08-07T05:38:57;19.10;99.90
19728;DHT22;10015;52.530;13.390;2023-08-07T05:41:23;19.10;99.90
19728;DHT22;10015;52.530;13.390;2023-08-07T05:43:49;19.00;99.90
19728;DHT22;10015;52.530;13.390;2023-08-07T05:46:15;19.10;99.90
19728;DHT22;10015;52.530;13.390;2023-08-07T05:48:40;19.10;99.90
19728;DHT22;10015;52.530;13.390;2023-08-07T05:51:06;19.10;99.90
19728;DHT22;10015;52.530;13.390;2023-08-07T05:53:34;19.10;99.90
19728;DHT22;10015;52.530;13.390;2023-08-07T05:56:00;19.10;99.90
19728;DHT22;10015;52.530;13.390;2023-08-07T05:58:26;19.20;99.90
19728;DHT22;10015;52.530;13.390;2023-08-07T06:00:52;19.20;99.90
19728;DHT22;10015;52.530;13.390;2023-08-07T06:03:18;19.20;99.90
19728;DHT22;10015;52.530;13.390;2023-08-07T06:05:44;19.20;99.90
19728;DHT22;10015;52.530;13.390;2023-08-07T06:08:10;19.40;99.90
19728;DHT22;10015;52.530;13.390;2023-08-07T06:10:37;19.40;99.90
19728;DHT22;10015;52.530;13.390;2023-08-07T06:13:03;19.50;99.90
19728;DHT22;10015;52.530;13.390;2023-08-07T06:15:30;19.60;99.90
19728;DHT22;10015;52.530;13.390;2023-08-07T06:17:56;19.50;99.90
19728;DHT22;10015;52.530;13.390;2023-08-07T06:20:22;19.60;99.90
19728;DHT22;10015;52.530;13.390;2023-08-07T06:22:48;19.50;99.90
19728;DHT22;10015;52.530;13.390;2023-08-07T06:25:14;19.50;99.90
19728;DHT22;10015;52.530;13.390;2023-08-07T06:27:40;19.50;99.90
19728;DHT22;10015;52.530;13.390;2023-08-07T06:30:06;19.60;99.90
19728;DHT22;10015;52.530;13.390;2023-08-07T06:32:32;19.60;99.90
19728;DHT22;10015;52.530;13.390;2023-08-07T06:34:58;19.60;99.90
19728;DHT22;10015;52.530;13.390;2023-08-07T06:37:24;19.60;99.90
19728;DHT22;10015;52.530;13.390;2023-08-07T06:39:50;19.70;99.90
19728;DHT22;10015;52.530;13.390;2023-08-07T06:42:16;19.70;99.90
19728;DHT22;10015;52.530;13.390;2023-08-07T06:44:43;19.70;99.90
19728;DHT22;10015;52.530;13.390;2023-08-07T06:47:09;19.70;99.90
19728;DHT22;10015;52.530;13.390;2023-08-07T06:49:35;19.70;99.90
19728;DHT22;10015;52.530;13.390;2023-08-07T06:52:01;19.70;99.90
19728;DHT22;10015;52.530;13.390;2023-08-07T06:54:28;19.70;99.90
19728;DHT22;10015;52.530;13.390;2023-08-07T06:56:53;19.60;99.90
19728;DHT22;10015;52.530;13.390;2023-08-07T06:59:19;19.50;99.90
19728;DHT22;10015;52.530;13.390;2023-08-07T07:01:46;19.50;99.90
19728;DHT22;10015;52.530;13.390;2023-08-07T07:04:11;19.50;99.90
19728;DHT22;10015;52.530;13.390;2023-08-07T07:06:38;19.60;99.90
19728;DHT22;10015;52.530;13.390;2023-08-07T07:09:04;19.60;99.90
19728;DHT22;10015;52.530;13.390;2023-08-07T07:11:30;19.70;99.90
19728;DHT22;10015;52.530;13.390;2023-08-07T07:13:56;19.80;99.90
19728;DHT22;10015;52.530;13.390;2023-08-07T07:16:22;20.00;99.90
19728;DHT22;10015;52.530;13.390;2023-08-07T07:18:49;20.10;99.90
19728;DHT22;10015;52.530;13.390;2023-08-07T07:21:15;20.20;99.90
19728;DHT22;10015;52.530;13.390;2023-08-07T07:23:41;20.40;99.90
19728;DHT22;10015;52.530;13.390;2023-08-07T07:26:07;20.40;99.90
19728;DHT22;10015;52.530;13.390;2023-08-07T07:28:33;20.50;99.90
19728;DHT22;10015;52.530;13.390;2023-08-07T07:30:59;20.60;99.90
19728;DHT22;10015;52.530;13.390;2023-08-07T07:33:25;20.80;99.90
19728;DHT22;10015;52.530;13.390;2023-08-07T07:35:51;20.70;99.90
19728;DHT22;10015;52.530;13.390;2023-08-07T07:38:17;20.60;99.90
19728;DHT22;10015;52.530;13.390;2023-08-07T07:40:43;20.60;99.90
19728;DHT22;10015;52.530;13.390;2023-08-07T07:43:09;20.60;99.90
19728;DHT22;10015;52.530;13.390;2023-08-07T07:45:35;20.60;99.90
19728;DHT22;10015;52.530;13.390;2023-08-07T07:48:04;20.40;99.90
19728;DHT22;10015;52.530;13.390;2023-08-07T07:50:32;20.40;99.90
19728;DHT22;10015;52.530;13.390;2023-08-07T07:52:58;20.30;99.90
19728;DHT22;10015;52.530;13.390;2023-08-07T07:55:24;20.20;99.90
19728;DHT22;10015;52.530;13.390;2023-08-07T07:57:51;20.40;99.90
19728;DHT22;10015;52.530;13.390;2023-08-07T08:00:17;20.50;99.90
19728;DHT22;10015;52.530;13.390;2023-08-07T08:02:45;20.60;99.90
19728;DHT22;10015;52.530;13.390;2023-08-07T08:05:12;20.60;99.90
19728;DHT22;10015;52.530;13.390;2023-08-07T08:07:38;20.70;99.90
19728;DHT22;10015;52.530;13.390;2023-08-07T08:10:08;20.60;99.90
19728;DHT22;10015;52.530;13.390;2023-08-07T08:12:35;20.50;99.90
19728;DHT22;10015;52.530;13.390;2023-08-07T08:15:02;20.40;99.90
19728;DHT22;10015;52.530;13.390;2023-08-07T08:17:28;20.40;99.90
19728;DHT22;10015;52.530;13.390;2023-08-07T08:19:54;20.40;99.90
19728;DHT22;10015;52.530;13.390;2023-08-07T08:22:20;20.40;99.90
19728;DHT22;10015;52.530;13.390;2023-08-07T08:24:46;20.30;99.90
19728;DHT22;10015;52.530;13.390;2023-08-07T08:27:13;20.30;99.90
19728;DHT22;10015;52.530;13.390;2023-08-07T08:29:39;20.40;99.90
19728;DHT22;10015;52.530;13.390;2023-08-07T08:32:06;20.40;99.90
19728;DHT22;10015;52.530;13.390;2023-08-07T08:34:32;20.30;99.90
19728;DHT22;10015;52.530;13.390;2023-08-07T08:36:58;20.30;99.90
19728;DHT22;10015;52.530;13.390;2023-08-07T08:39:23;20.20;99.90
19728;DHT22;10015;52.530;13.390;2023-08-07T08:41:50;20.20;99.90
19728;DHT22;10015;52.530;13.390;2023-08-07T08:44:17;20.20;99.90
19728;DHT22;10015;52.530;13.390;2023-08-07T08:46:47;20.20;99.90
19728;DHT22;10015;52.530;13.390;2023-08-07T08:49:16;20.30;99.90
19728;DHT22;10015;52.530;13.390;2023-08-07T08:51:46;20.40;99.90
19728;DHT22;10015;52.530;13.390;2023-08-07T08:54:13;20.50;99.90
19728;DHT22;10015;52.530;13.390;2023-08-07T08:56:40;20.50;99.90
19728;DHT22;10015;52.530;13.390;2023-08-07T08:59:06;20.50;99.90
19728;DHT22;10015;52.530;13.390;2023-08-07T09:01:32;20.60;99.90
19728;DHT22;10015;52.530;13.390;2023-08-07T09:04:00;20.80;99.90
19728;DHT22;10015;52.530;13.390;2023-08-07T09:06:27;20.70;99.90
19728;DHT22;10015;52.530;13.390;2023-08-07T09:08:55;20.70;99.90
19728;DHT22;10015;52.530;13.390;2023-08-07T09:11:23;20.70;99.90
19728;DHT22;10015;52.530;13.390;2023-08-07T09:13:49;20.70;99.90
19728;DHT22;10015;52.530;13.390;2023-08-07T09:16:16;20.70;99.90
19728;DHT22;10015;52.530;13.390;2023-08-07T09:18:42;20.70;99.90
19728;DHT22;10015;52.530;13.390;2023-08-07T09:21:09;20.60;99.90
19728;DHT22;10015;52.530;13.390;2023-08-07T09:23:35;20.50;99.90
19728;DHT22;10015;52.530;13.390;2023-08-07T09:26:03;20.50;99.90
19728;DHT22;10015;52.530;13.390;2023-08-07T09:28:34;20.50;99.90
19728;DHT22;10015;52.530;13.390;2023-08-07T09:31:00;20.60;99.90
19728;DHT22;10015;52.530;13.390;2023-08-07T09:33:28;20.70;99.90
19728;DHT22;10015;52.530;13.390;2023-08-07T09:35:59;21.00;99.90
19728;DHT22;10015;52.530;13.390;2023-08-07T09:38:29;21.40;99.90
19728;DHT22;10015;52.530;13.390;2023-08-07T09:41:01;21.60;99.90
19728;DHT22;10015;52.530;13.390;2023-08-07T09:43:29;21.80;99.90
19728;DHT22;10015;52.530;13.390;2023-08-07T09:46:05;21.80;99.90
19728;DHT22;10015;52.530;13.390;2023-08-07T09:48:31;21.80;99.90
19728;DHT22;10015;52.530;13.390;2023-08-07T09:51:02;21.70;99.90
19728;DHT22;10015;52.530;13.390;2023-08-07T09:53:30;21.50;99.90
19728;DHT22;10015;52.530;13.390;2023-08-07T09:55:56;21.50;99.90
19728;DHT22;10015;52.530;13.390;2023-08-07T09:58:23;21.40;99.90
19728;DHT22;10015;52.530;13.390;2023-08-07T10:00:50;21.10;99.90
19728;DHT22;10015;52.530;13.390;2023-08-07T10:03:16;21.10;99.90
19728;DHT22;10015;52.530;13.390;2023-08-07T10:05:43;21.00;99.90
19728;DHT22;10015;52.530;13.390;2023-08-07T10:08:10;20.90;99.90
19728;DHT22;10015;52.530;13.390;2023-08-07T10:10:37;20.80;99.90
19728;DHT22;10015;52.530;13.390;2023-08-07T10:13:03;21.00;99.90
19728;DHT22;10015;52.530;13.390;2023-08-07T10:15:31;21.10;99.90
19728;DHT22;10015;52.530;13.390;2023-08-07T10:17:58;21.30;99.90
19728;DHT22;10015;52.530;13.390;2023-08-07T10:20:28;21.30;99.90
19728;DHT22;10015;52.530;13.390;2023-08-07T10:23:00;21.40;99.90
19728;DHT22;10015;52.530;13.390;2023-08-07T10:25:27;21.30;99.90
19728;DHT22;10015;52.530;13.390;2023-08-07T10:27:56;21.30;99.90
19728;DHT22;10015;52.530;13.390;2023-08-07T10:30:24;21.30;99.90
19728;DHT22;10015;52.530;13.390;2023-08-07T10:32:51;21.20;99.90
19728;DHT22;10015;52.530;13.390;2023-08-07T10:35:31;21.20;99.90
19728;DHT22;10015;52.530;13.390;2023-08-07T10:38:08;21.30;99.90
19728;DHT22;10015;52.530;13.390;2023-08-07T10:41:07;21.40;99.90
19728;DHT22;10015;52.530;13.390;2023-08-07T10:43:38;21.60;99.90
19728;DHT22;10015;52.530;13.390;2023-08-07T10:46:14;21.50;99.90
19728;DHT22;10015;52.530;13.390;2023-08-07T10:48:42;21.50;99.90
19728;DHT22;10015;52.530;13.390;2023-08-07T10:51:12;21.50;99.90
19728;DHT22;10015;52.530;13.390;2023-08-07T10:53:43;21.60;99.90
19728;DHT22;10015;52.530;13.390;2023-08-07T10:56:16;21.50;99.90
19728;DHT22;10015;52.530;13.390;2023-08-07T10:58:42;21.70;99.90
19728;DHT22;10015;52.530;13.390;2023-08-07T11:01:26;21.60;99.90
19728;DHT22;10015;52.530;13.390;2023-08-07T11:03:55;21.40;99.90
19728;DHT22;10015;52.530;13.390;2023-08-07T11:06:31;21.20;99.90
19728;DHT22;10015;52.530;13.390;2023-08-07T11:08:58;21.20;99.90
19728;DHT22;10015;52.530;13.390;2023-08-07T11:11:26;21.10;99.90
19728;DHT22;10015;52.530;13.390;2023-08-07T11:13:52;21.00;99.90
19728;DHT22;10015;52.530;13.390;2023-08-07T11:16:18;20.60;99.90
19728;DHT22;10015;52.530;13.390;2023-08-07T11:18:47;20.40;99.90
19728;DHT22;10015;52.530;13.390;2023-08-07T11:21:13;20.20;99.90
19728;DHT22;10015;52.530;13.390;2023-08-07T11:23:40;20.20;99.90
19728;DHT22;10015;52.530;13.390;2023-08-07T11:26:07;20.20;99.90
19728;DHT22;10015;52.530;13.390;2023-08-07T11:28:34;20.20;99.90
19728;DHT22;10015;52.530;13.390;2023-08-07T11:31:00;20.20;99.90
19728;DHT22;10015;52.530;13.390;2023-08-07T11:33:27;20.10;99.90
19728;DHT22;10015;52.530;13.390;2023-08-07T11:35:55;20.30;99.90
19728;DHT22;10015;52.530;13.390;2023-08-07T11:41:08;20.40;99.90
19728;DHT22;10015;52.530;13.390;2023-08-07T11:43:35;20.30;99.90
19728;DHT22;10015;52.530;13.390;2023-08-07T11:46:05;20.30;99.90
19728;DHT22;10015;52.530;13.390;2023-08-07T11:48:35;20.40;99.90
19728;DHT22;10015;52.530;13.390;2023-08-07T11:51:02;20.60;99.90
19728;DHT22;10015;52.530;13.390;2023-08-07T11:53:33;20.60;99.90
19728;DHT22;10015;52.530;13.390;2023-08-07T11:56:02;20.80;99.90
19728;DHT22;10015;52.530;13.390;2023-08-07T11:58:34;21.00;99.90
19728;DHT22;10015;52.530;13.390;2023-08-07T12:01:11;21.20;99.90
19728;DHT22;10015;52.530;13.390;2023-08-07T12:03:40;21.20;99.90
19728;DHT22;10015;52.530;13.390;2023-08-07T12:06:08;21.10;99.90
19728;DHT22;10015;52.530;13.390;2023-08-07T12:08:39;21.20;99.90
19728;DHT22;10015;52.530;13.390;2023-08-07T12:11:07;21.30;99.90
19728;DHT22;10015;52.530;13.390;2023-08-07T12:13:37;21.20;99.90
19728;DHT22;10015;52.530;13.390;2023-08-07T12:16:04;21.40;99.90
19728;DHT22;10015;52.530;13.390;2023-08-07T12:18:31;21.50;99.90
19728;DHT22;10015;52.530;13.390;2023-08-07T12:20:59;21.40;99.90
19728;DHT22;10015;52.530;13.390;2023-08-07T12:23:26;21.40;99.90
19728;DHT22;10015;52.530;13.390;2023-08-07T12:25:52;21.40;99.90
19728;DHT22;10015;52.530;13.390;2023-08-07T12:28:18;21.40;99.90
19728;DHT22;10015;52.530;13.390;2023-08-07T12:30:48;21.40;99.90
19728;DHT22;10015;52.530;13.390;2023-08-07T12:33:14;21.40;99.90
19728;DHT22;10015;52.530;13.390;2023-08-07T12:35:41;21.40;99.90
19728;DHT22;10015;52.530;13.390;2023-08-07T12:38:07;21.40;99.90
19728;DHT22;10015;52.530;13.390;2023-08-07T12:40:35;21.40;99.90
19728;DHT22;10015;52.530;13.390;2023-08-07T12:43:13;21.30;99.90
19728;DHT22;10015;52.530;13.390;2023-08-07T12:45:39;21.10;99.90
19728;DHT22;10015;52.530;13.390;2023-08-07T12:48:05;21.10;99.90
19728;DHT22;10015;52.530;13.390;2023-08-07T12:50:31;21.00;99.90
19728;DHT22;10015;52.530;13.390;2023-08-07T12:52:57;21.00;99.90
19728;DHT22;10015;52.530;13.390;2023-08-07T12:55:24;21.00;99.90
19728;DHT22;10015;52.530;13.390;2023-08-07T12:57:50;21.00;99.90
19728;DHT22;10015;52.530;13.390;2023-08-07T13:00:17;21.00;99.90
19728;DHT22;10015;52.530;13.390;2023-08-07T13:02:46;20.80;99.90
19728;DHT22;10015;52.530;13.390;2023-08-07T13:05:12;20.80;99.90
19728;DHT22;10015;52.530;13.390;2023-08-07T13:07:40;20.80;99.90
19728;DHT22;10015;52.530;13.390;2023-08-07T13:10:07;21.00;99.90
19728;DHT22;10015;52.530;13.390;2023-08-07T13:12:39;21.20;99.90
19728;DHT22;10015;52.530;13.390;2023-08-07T13:15:06;21.30;99.90
19728;DHT22;10015;52.530;13.390;2023-08-07T13:17:36;21.40;99.90
19728;DHT22;10015;52.530;13.390;2023-08-07T13:20:03;21.50;99.90
19728;DHT22;10015;52.530;13.390;2023-08-07T13:22:42;21.50;99.90
19728;DHT22;10015;52.530;13.390;2023-08-07T13:25:10;21.60;99.90
19728;DHT22;10015;52.530;13.390;2023-08-07T13:27:37;21.60;99.90
19728;DHT22;10015;52.530;13.390;2023-08-07T13:30:04;21.60;99.90
19728;DHT22;10015;52.530;13.390;2023-08-07T13:32:31;21.60;99.90
19728;DHT22;10015;52.530;13.390;2023-08-07T13:35:00;21.60;99.90
19728;DHT22;10015;52.530;13.390;2023-08-07T13:37:26;21.60;99.90
19728;DHT22;10015;52.530;13.390;2023-08-07T13:39:52;21.70;99.90
19728;DHT22;10015;52.530;13.390;2023-08-07T13:42:19;21.70;99.90
19728;DHT22;10015;52.530;13.390;2023-08-07T13:44:45;21.70;99.90
19728;DHT22;10015;52.530;13.390;2023-08-07T13:47:11;21.60;99.90
19728;DHT22;10015;52.530;13.390;2023-08-07T13:49:38;21.80;99.90
19728;DHT22;10015;52.530;13.390;2023-08-07T13:52:05;22.10;99.90
19728;DHT22;10015;52.530;13.390;2023-08-07T13:54:31;22.20;99.90
19728;DHT22;10015;52.530;13.390;2023-08-07T13:56:57;22.30;99.90
19728;DHT22;10015;52.530;13.390;2023-08-07T13:59:23;22.30;99.90
19728;DHT22;10015;52.530;13.390;2023-08-07T14:01:48;22.20;99.90
19728;DHT22;10015;52.530;13.390;2023-08-07T14:04:14;22.10;99.90
19728;DHT22;10015;52.530;13.390;2023-08-07T14:06:41;21.90;99.90
19728;DHT22;10015;52.530;13.390;2023-08-07T14:09:10;21.80;99.90
19728;DHT22;10015;52.530;13.390;2023-08-07T14:11:37;21.60;99.90
19728;DHT22;10015;52.530;13.390;2023-08-07T14:14:03;21.60;99.90
19728;DHT22;10015;52.530;13.390;2023-08-07T14:16:29;21.50;99.90
19728;DHT22;10015;52.530;13.390;2023-08-07T14:18:55;21.50;99.90
19728;DHT22;10015;52.530;13.390;2023-08-07T14:21:21;21.50;99.90
19728;DHT22;10015;52.530;13.390;2023-08-07T14:23:47;21.50;99.90
19728;DHT22;10015;52.530;13.390;2023-08-07T14:26:15;21.40;99.90
19728;DHT22;10015;52.530;13.390;2023-08-07T14:28:41;21.40;99.90
19728;DHT22;10015;52.530;13.390;2023-08-07T14:31:08;21.50;99.90
19728;DHT22;10015;52.530;13.390;2023-08-07T14:33:35;21.50;99.90
19728;DHT22;10015;52.530;13.390;2023-08-07T14:36:01;21.50;99.90
19728;DHT22;10015;52.530;13.390;2023-08-07T14:38:28;21.50;99.90
19728;DHT22;10015;52.530;13.390;2023-08-07T14:40:55;21.40;99.90
19728;DHT22;10015;52.530;13.390;2023-08-07T14:43:21;21.30;99.90
19728;DHT22;10015;52.530;13.390;2023-08-07T14:45:48;21.30;99.90
19728;DHT22;10015;52.530;13.390;2023-08-07T14:48:15;21.40;99.90
19728;DHT22;10015;52.530;13.390;2023-08-07T14:50:41;21.30;99.90
19728;DHT22;10015;52.530;13.390;2023-08-07T14:53:07;21.20;99.90
19728;DHT22;10015;52.530;13.390;2023-08-07T14:55:33;21.30;99.90
19728;DHT22;10015;52.530;13.390;2023-08-07T14:57:59;21.20;99.90
19728;DHT22;10015;52.530;13.390;2023-08-07T15:00:25;21.10;99.90
19728;DHT22;10015;52.530;13.390;2023-08-07T15:02:51;21.10;99.90
19728;DHT22;10015;52.530;13.390;2023-08-07T15:05:17;21.00;99.90
19728;DHT22;10015;52.530;13.390;2023-08-07T15:07:43;20.90;99.90
19728;DHT22;10015;52.530;13.390;2023-08-07T15:10:09;20.80;99.90
19728;DHT22;10015;52.530;13.390;2023-08-07T15:12:35;20.80;99.90
19728;DHT22;10015;52.530;13.390;2023-08-07T15:15:02;20.90;99.90
19728;DHT22;10015;52.530;13.390;2023-08-07T15:17:28;21.10;99.90
19728;DHT22;10015;52.530;13.390;2023-08-07T15:19:54;21.20;99.90
19728;DHT22;10015;52.530;13.390;2023-08-07T15:22:20;21.20;99.90
19728;DHT22;10015;52.530;13.390;2023-08-07T15:24:46;21.20;99.90